sensor_id;sensor_type;location;lat;lon;timestamp;P1;durP1;ratioP1;P2;durP2;ratioP2
71759;SDS011;59919;48.112;16.280;2022-10-16T00:01:35;6.57;;;5.93;;
71759;SDS011;59919;48.112;16.280;2022-10-16T00:04:06;5.95;;;5.43;;
71759;SDS011;59919;48.112;16.280;2022-10-16T00:06:40;7.13;;;6.15;;
71759;SDS011;59919;48.112;16.280;2022-10-16T00:09:11;6.75;;;6.05;;
71759;SDS011;59919;48.112;16.280;2022-10-16T00:11:42;6.55;;;5.72;;
71759;SDS011;59919;48.112;16.280;2022-10-16T00:14:14;6.07;;;5.50;;
71759;SDS011;59919;48.112;16.280;2022-10-16T00:16:49;6.20;;;5.60;;
71759;SDS011;59919;48.112;16.280;2022-10-16T00:19:20;6.60;;;5.72;;
71759;SDS011;59919;48.112;16.280;2022-10-16T00:21:51;6.20;;;5.60;;
71759;SDS011;59919;48.112;16.280;2022-10-16T00:24:22;6.30;;;5.13;;
71759;SDS011;59919;48.112;16.280;2022-10-16T00:27:02;6.75;;;6.15;;
71759;SDS011;59919;48.112;16.280;2022-10-16T00:29:36;5.63;;;5.10;;
71759;SDS011;59919;48.112;16.280;2022-10-16T00:32:07;6.18;;;5.57;;
71759;SDS011;59919;48.112;16.280;2022-10-16T00:34:38;5.65;;;5.15;;
71759;SDS011;59919;48.112;16.280;2022-10-16T00:37:09;6.28;;;5.68;;
71759;SDS011;59919;48.112;16.280;2022-10-16T00:39:40;6.43;;;5.82;;
71759;SDS011;59919;48.112;16.280;2022-10-16T00:42:15;6.15;;;5.50;;
71759;SDS011;59919;48.112;16.280;2022-10-16T00:44:52;6.15;;;5.55;;
71759;SDS011;59919;48.112;16.280;2022-10-16T00:47:34;6.43;;;5.80;;
71759;SDS011;59919;48.112;16.280;2022-10-16T00:52:52;6.47;;;5.78;;
71759;SDS011;59919;48.112;16.280;2022-10-16T00:55:27;5.82;;;5.32;;
71759;SDS011;59919;48.112;16.280;2022-10-16T00:58:00;5.47;;;4.97;;
71759;SDS011;59919;48.112;16.280;2022-10-16T01:00:33;5.63;;;5.10;;
71759;SDS011;59919;48.112;16.280;2022-10-16T01:03:24;6.55;;;5.70;;
71759;SDS011;59919;48.112;16.280;2022-10-16T01:09:03;5.05;;;4.60;;
71759;SDS011;59919;48.112;16.280;2022-10-16T01:14:32;5.53;;;5.03;;
71759;SDS011;59919;48.112;16.280;2022-10-16T01:17:12;5.82;;;5.32;;
71759;SDS011;59919;48.112;16.280;2022-10-16T01:22:25;5.85;;;5.25;;
71759;SDS011;59919;48.112;16.280;2022-10-16T01:25:11;5.55;;;4.97;;
71759;SDS011;59919;48.112;16.280;2022-10-16T01:27:49;5.70;;;5.20;;
71759;SDS011;59919;48.112;16.280;2022-10-16T01:30:28;5.50;;;5.00;;
71759;SDS011;59919;48.112;16.280;2022-10-16T01:33:03;5.68;;;5.15;;
71759;SDS011;59919;48.112;16.280;2022-10-16T01:35:45;5.90;;;5.30;;
71759;SDS011;59919;48.112;16.280;2022-10-16T01:41:06;5.78;;;5.25;;
71759;SDS011;59919;48.112;16.280;2022-10-16T01:43:44;5.50;;;5.00;;
71759;SDS011;59919;48.112;16.280;2022-10-16T01:46:22;5.28;;;4.88;;
71759;SDS011;59919;48.112;16.280;2022-10-16T01:48:58;5.82;;;5.30;;
71759;SDS011;59919;48.112;16.280;2022-10-16T01:51:32;5.80;;;5.20;;
71759;SDS011;59919;48.112;16.280;2022-10-16T01:54:08;5.45;;;4.95;;
71759;SDS011;59919;48.112;16.280;2022-10-16T01:56:40;5.68;;;5.18;;
71759;SDS011;59919;48.112;16.280;2022-10-16T01:59:16;5.90;;;5.30;;
71759;SDS011;59919;48.112;16.280;2022-10-16T02:01:51;5.43;;;4.93;;
71759;SDS011;59919;48.112;16.280;2022-10-16T02:07:03;5.55;;;5.05;;
71759;SDS011;59919;48.112;16.280;2022-10-16T02:09:34;5.70;;;5.20;;
71759;SDS011;59919;48.112;16.280;2022-10-16T02:12:08;6.22;;;5.60;;
71759;SDS011;59919;48.112;16.280;2022-10-16T02:14:44;5.53;;;5.03;;
71759;SDS011;59919;48.112;16.280;2022-10-16T02:17:17;5.50;;;5.00;;
71759;SDS011;59919;48.112;16.280;2022-10-16T02:19:49;6.10;;;5.20;;
71759;SDS011;59919;48.112;16.280;2022-10-16T02:30:45;5.90;;;5.40;;
71759;SDS011;59919;48.112;16.280;2022-10-16T02:33:23;5.95;;;5.45;;
71759;SDS011;59919;48.112;16.280;2022-10-16T02:35:57;5.80;;;5.30;;
71759;SDS011;59919;48.112;16.280;2022-10-16T02:38:28;5.28;;;4.78;;
71759;SDS011;59919;48.112;16.280;2022-10-16T02:41:01;5.50;;;5.00;;
71759;SDS011;59919;48.112;16.280;2022-10-16T02:43:32;5.63;;;5.13;;
71759;SDS011;59919;48.112;16.280;2022-10-16T02:46:04;5.45;;;4.95;;
71759;SDS011;59919;48.112;16.280;2022-10-16T02:48:38;5.50;;;5.00;;
71759;SDS011;59919;48.112;16.280;2022-10-16T02:51:11;6.03;;;5.43;;
71759;SDS011;59919;48.112;16.280;2022-10-16T02:53:50;5.60;;;5.10;;
71759;SDS011;59919;48.112;16.280;2022-10-16T02:56:22;5.50;;;4.95;;
71759;SDS011;59919;48.112;16.280;2022-10-16T02:58:53;4.97;;;4.55;;
71759;SDS011;59919;48.112;16.280;2022-10-16T03:01:24;6.13;;;5.53;;
71759;SDS011;59919;48.112;16.280;2022-10-16T03:03:55;5.65;;;5.15;;
71759;SDS011;59919;48.112;16.280;2022-10-16T03:06:29;5.07;;;4.60;;
71759;SDS011;59919;48.112;16.280;2022-10-16T03:09:00;5.70;;;5.20;;
71759;SDS011;59919;48.112;16.280;2022-10-16T03:11:34;5.68;;;5.07;;
71759;SDS011;59919;48.112;16.280;2022-10-16T03:14:05;5.95;;;5.35;;
71759;SDS011;59919;48.112;16.280;2022-10-16T03:16:36;5.50;;;5.00;;
71759;SDS011;59919;48.112;16.280;2022-10-16T03:19:10;5.60;;;5.10;;
71759;SDS011;59919;48.112;16.280;2022-10-16T03:21:41;5.30;;;4.80;;
71759;SDS011;59919;48.112;16.280;2022-10-16T03:24:12;5.40;;;4.90;;
71759;SDS011;59919;48.112;16.280;2022-10-16T03:26:43;4.80;;;4.40;;
71759;SDS011;59919;48.112;16.280;2022-10-16T03:29:16;5.47;;;4.97;;
71759;SDS011;59919;48.112;16.280;2022-10-16T03:31:50;6.75;;;4.93;;
71759;SDS011;59919;48.112;16.280;2022-10-16T03:34:24;5.03;;;4.63;;
71759;SDS011;59919;48.112;16.280;2022-10-16T03:36:58;5.13;;;4.60;;
71759;SDS011;59919;48.112;16.280;2022-10-16T03:39:29;5.00;;;4.50;;
71759;SDS011;59919;48.112;16.280;2022-10-16T03:42:03;4.97;;;4.57;;
71759;SDS011;59919;48.112;16.280;2022-10-16T03:44:36;5.20;;;4.70;;
71759;SDS011;59919;48.112;16.280;2022-10-16T03:47:07;5.40;;;4.90;;
71759;SDS011;59919;48.112;16.280;2022-10-16T03:49:41;5.28;;;4.82;;
71759;SDS011;59919;48.112;16.280;2022-10-16T03:54:49;5.13;;;4.72;;
71759;SDS011;59919;48.112;16.280;2022-10-16T03:57:20;5.40;;;4.90;;
71759;SDS011;59919;48.112;16.280;2022-10-16T04:00:06;4.97;;;4.45;;
71759;SDS011;59919;48.112;16.280;2022-10-16T04:02:38;4.57;;;4.18;;
71759;SDS011;59919;48.112;16.280;2022-10-16T04:05:12;4.88;;;4.47;;
71759;SDS011;59919;48.112;16.280;2022-10-16T04:07:43;4.97;;;4.47;;
71759;SDS011;59919;48.112;16.280;2022-10-16T04:10:14;5.30;;;4.80;;
71759;SDS011;59919;48.112;16.280;2022-10-16T04:12:48;5.22;;;4.43;;
71759;SDS011;59919;48.112;16.280;2022-10-16T04:15:25;4.80;;;4.40;;
71759;SDS011;59919;48.112;16.280;2022-10-16T04:17:59;4.45;;;4.15;;
71759;SDS011;59919;48.112;16.280;2022-10-16T04:20:30;4.88;;;4.47;;
71759;SDS011;59919;48.112;16.280;2022-10-16T04:23:01;4.70;;;4.30;;
71759;SDS011;59919;48.112;16.280;2022-10-16T04:25:35;5.32;;;4.90;;
71759;SDS011;59919;48.112;16.280;2022-10-16T04:28:06;5.18;;;4.68;;
71759;SDS011;59919;48.112;16.280;2022-10-16T04:30:38;4.72;;;4.32;;
71759;SDS011;59919;48.112;16.280;2022-10-16T04:33:09;4.63;;;4.22;;
71759;SDS011;59919;48.112;16.280;2022-10-16T04:35:40;5.13;;;4.63;;
71759;SDS011;59919;48.112;16.280;2022-10-16T04:38:11;5.53;;;5.03;;
71759;SDS011;59919;48.112;16.280;2022-10-16T04:40:45;5.18;;;4.68;;
71759;SDS011;59919;48.112;16.280;2022-10-16T04:43:22;5.43;;;4.93;;
71759;SDS011;59919;48.112;16.280;2022-10-16T04:45:53;5.30;;;4.80;;
71759;SDS011;59919;48.112;16.280;2022-10-16T04:48:27;5.22;;;4.75;;
71759;SDS011;59919;48.112;16.280;2022-10-16T04:51:03;4.70;;;4.30;;
71759;SDS011;59919;48.112;16.280;2022-10-16T04:53:37;4.97;;;4.57;;
71759;SDS011;59919;48.112;16.280;2022-10-16T04:56:11;5.35;;;4.85;;
71759;SDS011;59919;48.112;16.280;2022-10-16T04:58:42;4.55;;;4.15;;
71759;SDS011;59919;48.112;16.280;2022-10-16T05:01:15;5.63;;;4.65;;
71759;SDS011;59919;48.112;16.280;2022-10-16T05:03:46;4.80;;;4.40;;
71759;SDS011;59919;48.112;16.280;2022-10-16T05:06:20;4.38;;;4.03;;
71759;SDS011;59919;48.112;16.280;2022-10-16T05:08:56;5.30;;;4.80;;
71759;SDS011;59919;48.112;16.280;2022-10-16T05:11:29;4.82;;;4.43;;
71759;SDS011;59919;48.112;16.280;2022-10-16T05:14:02;4.70;;;4.30;;
71759;SDS011;59919;48.112;16.280;2022-10-16T05:16:33;4.72;;;4.32;;
71759;SDS011;59919;48.112;16.280;2022-10-16T05:19:06;5.10;;;4.70;;
71759;SDS011;59919;48.112;16.280;2022-10-16T05:21:40;5.30;;;4.80;;
71759;SDS011;59919;48.112;16.280;2022-10-16T05:24:11;5.07;;;4.57;;
71759;SDS011;59919;48.112;16.280;2022-10-16T05:26:42;5.43;;;4.93;;
71759;SDS011;59919;48.112;16.280;2022-10-16T05:29:19;5.13;;;4.63;;
71759;SDS011;59919;48.112;16.280;2022-10-16T05:31:56;4.80;;;4.40;;
71759;SDS011;59919;48.112;16.280;2022-10-16T05:34:27;4.93;;;4.45;;
71759;SDS011;59919;48.112;16.280;2022-10-16T05:36:58;5.25;;;4.85;;
71759;SDS011;59919;48.112;16.280;2022-10-16T05:39:31;5.15;;;4.60;;
71759;SDS011;59919;48.112;16.280;2022-10-16T05:42:03;4.38;;;3.97;;
71759;SDS011;59919;48.112;16.280;2022-10-16T05:44:34;5.45;;;4.95;;
71759;SDS011;59919;48.112;16.280;2022-10-16T05:47:06;5.20;;;4.70;;
71759;SDS011;59919;48.112;16.280;2022-10-16T05:49:39;5.35;;;4.85;;
71759;SDS011;59919;48.112;16.280;2022-10-16T05:52:10;5.40;;;4.90;;
71759;SDS011;59919;48.112;16.280;2022-10-16T05:54:43;5.20;;;4.80;;
71759;SDS011;59919;48.112;16.280;2022-10-16T05:57:17;5.15;;;4.65;;
71759;SDS011;59919;48.112;16.280;2022-10-16T05:59:48;5.18;;;4.68;;
71759;SDS011;59919;48.112;16.280;2022-10-16T06:02:19;5.05;;;4.55;;
71759;SDS011;59919;48.112;16.280;2022-10-16T06:04:51;4.90;;;4.28;;
71759;SDS011;59919;48.112;16.280;2022-10-16T06:07:24;5.15;;;4.65;;
71759;SDS011;59919;48.112;16.280;2022-10-16T06:09:55;4.60;;;4.20;;
71759;SDS011;59919;48.112;16.280;2022-10-16T06:12:26;4.88;;;4.43;;
71759;SDS011;59919;48.112;16.280;2022-10-16T06:14:57;5.03;;;4.53;;
71759;SDS011;59919;48.112;16.280;2022-10-16T06:17:28;4.80;;;4.40;;
71759;SDS011;59919;48.112;16.280;2022-10-16T06:20:04;4.47;;;4.07;;
71759;SDS011;59919;48.112;16.280;2022-10-16T06:22:37;4.68;;;4.28;;
71759;SDS011;59919;48.112;16.280;2022-10-16T06:25:08;4.75;;;4.35;;
71759;SDS011;59919;48.112;16.280;2022-10-16T06:27:42;4.95;;;4.55;;
71759;SDS011;59919;48.112;16.280;2022-10-16T06:30:13;5.00;;;4.50;;
71759;SDS011;59919;48.112;16.280;2022-10-16T06:32:44;4.68;;;4.28;;
71759;SDS011;59919;48.112;16.280;2022-10-16T06:35:15;4.18;;;3.88;;
71759;SDS011;59919;48.112;16.280;2022-10-16T06:37:48;4.40;;;4.00;;
71759;SDS011;59919;48.112;16.280;2022-10-16T06:40:19;4.43;;;4.03;;
71759;SDS011;59919;48.112;16.280;2022-10-16T06:42:56;4.32;;;3.92;;
71759;SDS011;59919;48.112;16.280;2022-10-16T06:45:30;4.13;;;3.80;;
71759;SDS011;59919;48.112;16.280;2022-10-16T06:48:01;4.53;;;4.13;;
71759;SDS011;59919;48.112;16.280;2022-10-16T06:50:32;4.40;;;4.10;;
71759;SDS011;59919;48.112;16.280;2022-10-16T06:53:03;4.15;;;3.78;;
71759;SDS011;59919;48.112;16.280;2022-10-16T06:55:37;4.38;;;3.97;;
71759;SDS011;59919;48.112;16.280;2022-10-16T06:58:08;3.90;;;3.60;;
71759;SDS011;59919;48.112;16.280;2022-10-16T07:00:39;4.00;;;3.60;;
71759;SDS011;59919;48.112;16.280;2022-10-16T07:03:13;4.15;;;3.83;;
71759;SDS011;59919;48.112;16.280;2022-10-16T07:05:44;4.35;;;3.97;;
71759;SDS011;59919;48.112;16.280;2022-10-16T07:08:17;4.68;;;4.28;;
71759;SDS011;59919;48.112;16.280;2022-10-16T07:10:57;4.28;;;3.97;;
71759;SDS011;59919;48.112;16.280;2022-10-16T07:13:29;4.60;;;4.20;;
71759;SDS011;59919;48.112;16.280;2022-10-16T07:16:11;3.65;;;3.35;;
71759;SDS011;59919;48.112;16.280;2022-10-16T07:18:57;4.55;;;4.15;;
71759;SDS011;59919;48.112;16.280;2022-10-16T07:21:35;3.70;;;3.40;;
71759;SDS011;59919;48.112;16.280;2022-10-16T07:24:15;4.45;;;3.92;;
71759;SDS011;59919;48.112;16.280;2022-10-16T07:26:46;3.95;;;3.60;;
71759;SDS011;59919;48.112;16.280;2022-10-16T07:29:19;4.05;;;3.75;;
71759;SDS011;59919;48.112;16.280;2022-10-16T07:31:53;3.90;;;3.60;;
71759;SDS011;59919;48.112;16.280;2022-10-16T07:34:24;4.57;;;4.18;;
71759;SDS011;59919;48.112;16.280;2022-10-16T07:36:57;3.88;;;3.58;;
71759;SDS011;59919;48.112;16.280;2022-10-16T07:39:28;4.35;;;3.95;;
71759;SDS011;59919;48.112;16.280;2022-10-16T07:41:59;4.00;;;3.70;;
71759;SDS011;59919;48.112;16.280;2022-10-16T07:44:32;4.03;;;3.70;;
71759;SDS011;59919;48.112;16.280;2022-10-16T07:47:03;4.30;;;3.97;;
71759;SDS011;59919;48.112;16.280;2022-10-16T07:49:34;4.35;;;3.95;;
71759;SDS011;59919;48.112;16.280;2022-10-16T07:52:08;4.50;;;4.10;;
71759;SDS011;59919;48.112;16.280;2022-10-16T07:54:39;3.85;;;3.55;;
71759;SDS011;59919;48.112;16.280;2022-10-16T07:57:10;4.68;;;4.28;;
71759;SDS011;59919;48.112;16.280;2022-10-16T07:59:42;4.32;;;3.97;;
71759;SDS011;59919;48.112;16.280;2022-10-16T08:02:15;4.78;;;4.30;;
71759;SDS011;59919;48.112;16.280;2022-10-16T08:04:51;4.07;;;3.67;;
71759;SDS011;59919;48.112;16.280;2022-10-16T08:07:22;4.43;;;4.03;;
71759;SDS011;59919;48.112;16.280;2022-10-16T08:09:53;4.60;;;4.18;;
71759;SDS011;59919;48.112;16.280;2022-10-16T08:12:29;5.22;;;4.47;;
71759;SDS011;59919;48.112;16.280;2022-10-16T08:15:02;4.72;;;4.20;;
71759;SDS011;59919;48.112;16.280;2022-10-16T08:17:34;4.57;;;4.18;;
71759;SDS011;59919;48.112;16.280;2022-10-16T08:20:07;5.00;;;4.38;;
71759;SDS011;59919;48.112;16.280;2022-10-16T08:22:41;4.50;;;4.10;;
71759;SDS011;59919;48.112;16.280;2022-10-16T08:25:12;4.75;;;4.25;;
71759;SDS011;59919;48.112;16.280;2022-10-16T08:27:43;4.32;;;3.92;;
71759;SDS011;59919;48.112;16.280;2022-10-16T08:30:21;4.75;;;4.28;;
71759;SDS011;59919;48.112;16.280;2022-10-16T08:32:53;6.28;;;4.88;;
71759;SDS011;59919;48.112;16.280;2022-10-16T08:35:24;4.35;;;3.90;;
71759;SDS011;59919;48.112;16.280;2022-10-16T08:37:58;5.78;;;4.53;;
71759;SDS011;59919;48.112;16.280;2022-10-16T08:40:32;5.68;;;4.75;;
71759;SDS011;59919;48.112;16.280;2022-10-16T08:46:07;5.93;;;4.45;;
71759;SDS011;59919;48.112;16.280;2022-10-16T08:49:02;5.80;;;4.65;;
71759;SDS011;59919;48.112;16.280;2022-10-16T08:51:39;4.60;;;4.20;;
71759;SDS011;59919;48.112;16.280;2022-10-16T08:54:30;5.85;;;4.45;;
71759;SDS011;59919;48.112;16.280;2022-10-16T08:57:17;5.88;;;4.45;;
71759;SDS011;59919;48.112;16.280;2022-10-16T08:59:53;4.47;;;4.07;;
71759;SDS011;59919;48.112;16.280;2022-10-16T09:05:16;5.97;;;4.07;;
71759;SDS011;59919;48.112;16.280;2022-10-16T09:08:03;5.65;;;4.20;;
71759;SDS011;59919;48.112;16.280;2022-10-16T09:13:29;4.35;;;3.95;;
71759;SDS011;59919;48.112;16.280;2022-10-16T09:16:22;4.75;;;4.25;;
71759;SDS011;59919;48.112;16.280;2022-10-16T09:21:46;4.68;;;4.18;;
71759;SDS011;59919;48.112;16.280;2022-10-16T09:24:22;4.72;;;3.88;;
71759;SDS011;59919;48.112;16.280;2022-10-16T09:26:55;4.70;;;4.20;;
71759;SDS011;59919;48.112;16.280;2022-10-16T09:29:26;6.22;;;4.45;;
71759;SDS011;59919;48.112;16.280;2022-10-16T09:31:57;6.82;;;4.40;;
71759;SDS011;59919;48.112;16.280;2022-10-16T09:34:49;4.45;;;3.75;;
71759;SDS011;59919;48.112;16.280;2022-10-16T09:37:24;4.75;;;3.92;;
71759;SDS011;59919;48.112;16.280;2022-10-16T09:39:56;5.07;;;3.95;;
71759;SDS011;59919;48.112;16.280;2022-10-16T09:42:35;5.22;;;3.83;;
71759;SDS011;59919;48.112;16.280;2022-10-16T09:45:19;6.63;;;3.97;;
71759;SDS011;59919;48.112;16.280;2022-10-16T09:47:53;4.65;;;3.75;;
71759;SDS011;59919;48.112;16.280;2022-10-16T09:50:24;5.35;;;3.92;;
71759;SDS011;59919;48.112;16.280;2022-10-16T09:53:13;5.65;;;4.05;;
71759;SDS011;59919;48.112;16.280;2022-10-16T09:55:48;8.25;;;4.20;;
71759;SDS011;59919;48.112;16.280;2022-10-16T09:58:25;5.85;;;3.92;;
71759;SDS011;59919;48.112;16.280;2022-10-16T10:00:56;8.93;;;4.80;;
71759;SDS011;59919;48.112;16.280;2022-10-16T10:06:23;6.57;;;3.55;;
71759;SDS011;59919;48.112;16.280;2022-10-16T10:08:57;4.80;;;3.97;;
71759;SDS011;59919;48.112;16.280;2022-10-16T10:11:40;7.60;;;4.03;;
71759;SDS011;59919;48.112;16.280;2022-10-16T10:14:17;5.68;;;3.88;;
71759;SDS011;59919;48.112;16.280;2022-10-16T10:16:51;4.32;;;3.50;;
71759;SDS011;59919;48.112;16.280;2022-10-16T10:19:44;6.93;;;4.35;;
71759;SDS011;59919;48.112;16.280;2022-10-16T10:22:25;7.93;;;4.30;;
71759;SDS011;59919;48.112;16.280;2022-10-16T10:44:44;7.20;;;4.40;;
71759;SDS011;59919;48.112;16.280;2022-10-16T10:52:58;6.30;;;4.20;;
71759;SDS011;59919;48.112;16.280;2022-10-16T10:55:42;5.78;;;4.30;;
71759;SDS011;59919;48.112;16.280;2022-10-16T11:01:35;6.65;;;4.00;;
71759;SDS011;59919;48.112;16.280;2022-10-16T11:10:05;5.30;;;3.72;;
71759;SDS011;59919;48.112;16.280;2022-10-16T11:13:02;7.63;;;4.13;;
71759;SDS011;59919;48.112;16.280;2022-10-16T11:15:50;5.70;;;4.27;;
71759;SDS011;59919;48.112;16.280;2022-10-16T11:18:30;8.68;;;4.32;;
71759;SDS011;59919;48.112;16.280;2022-10-16T11:21:13;6.55;;;4.15;;
71759;SDS011;59919;48.112;16.280;2022-10-16T11:26:38;6.63;;;4.40;;
71759;SDS011;59919;48.112;16.280;2022-10-16T11:29:13;5.95;;;4.22;;
71759;SDS011;59919;48.112;16.280;2022-10-16T11:32:04;7.97;;;4.67;;
71759;SDS011;59919;48.112;16.280;2022-10-16T11:34:44;5.72;;;4.40;;
71759;SDS011;59919;48.112;16.280;2022-10-16T11:39:54;6.05;;;4.57;;
71759;SDS011;59919;48.112;16.280;2022-10-16T11:42:39;5.38;;;4.30;;
71759;SDS011;59919;48.112;16.280;2022-10-16T11:56:17;5.90;;;4.45;;
71759;SDS011;59919;48.112;16.280;2022-10-16T11:58:56;6.18;;;4.70;;
71759;SDS011;59919;48.112;16.280;2022-10-16T12:01:38;6.57;;;4.75;;
71759;SDS011;59919;48.112;16.280;2022-10-16T12:09:39;6.05;;;4.40;;
71759;SDS011;59919;48.112;16.280;2022-10-16T12:12:28;8.07;;;5.05;;
71759;SDS011;59919;48.112;16.280;2022-10-16T12:15:21;7.38;;;4.18;;
71759;SDS011;59919;48.112;16.280;2022-10-16T12:17:56;9.00;;;5.07;;
71759;SDS011;59919;48.112;16.280;2022-10-16T12:20:31;6.30;;;4.28;;
71759;SDS011;59919;48.112;16.280;2022-10-16T12:23:05;8.32;;;4.57;;
71759;SDS011;59919;48.112;16.280;2022-10-16T12:25:37;7.88;;;4.72;;
71759;SDS011;59919;48.112;16.280;2022-10-16T12:28:26;6.72;;;4.55;;
71759;SDS011;59919;48.112;16.280;2022-10-16T12:31:02;8.60;;;4.15;;
71759;SDS011;59919;48.112;16.280;2022-10-16T12:36:15;7.13;;;4.43;;
71759;SDS011;59919;48.112;16.280;2022-10-16T12:38:56;8.02;;;4.35;;
71759;SDS011;59919;48.112;16.280;2022-10-16T12:41:34;7.43;;;4.60;;
71759;SDS011;59919;48.112;16.280;2022-10-16T12:44:25;5.80;;;4.38;;
71759;SDS011;59919;48.112;16.280;2022-10-16T12:46:59;6.60;;;4.53;;
71759;SDS011;59919;48.112;16.280;2022-10-16T12:49:34;7.47;;;4.18;;
71759;SDS011;59919;48.112;16.280;2022-10-16T12:55:12;7.93;;;4.07;;
71759;SDS011;59919;48.112;16.280;2022-10-16T12:58:02;7.43;;;3.85;;
71759;SDS011;59919;48.112;16.280;2022-10-16T13:00:57;8.70;;;4.40;;
71759;SDS011;59919;48.112;16.280;2022-10-16T13:03:47;4.22;;;3.80;;
71759;SDS011;59919;48.112;16.280;2022-10-16T13:09:13;4.57;;;3.85;;
71759;SDS011;59919;48.112;16.280;2022-10-16T13:12:18;8.13;;;4.18;;
71759;SDS011;59919;48.112;16.280;2022-10-16T13:15:25;6.40;;;3.90;;
71759;SDS011;59919;48.112;16.280;2022-10-16T13:18:46;5.53;;;4.15;;
71759;SDS011;59919;48.112;16.280;2022-10-16T13:28:12;6.18;;;4.07;;
71759;SDS011;59919;48.112;16.280;2022-10-16T13:30:24;5.80;;;4.03;;
71759;SDS011;59919;48.112;16.280;2022-10-16T13:33:03;7.38;;;3.63;;
71759;SDS011;59919;48.112;16.280;2022-10-16T13:35:37;5.75;;;4.10;;
71759;SDS011;59919;48.112;16.280;2022-10-16T13:38:21;5.18;;;3.75;;
71759;SDS011;59919;48.112;16.280;2022-10-16T13:43:47;6.15;;;3.75;;
71759;SDS011;59919;48.112;16.280;2022-10-16T13:46:24;3.97;;;3.53;;
71759;SDS011;59919;48.112;16.280;2022-10-16T13:48:59;5.50;;;4.32;;
71759;SDS011;59919;48.112;16.280;2022-10-16T13:51:37;4.72;;;3.90;;
71759;SDS011;59919;48.112;16.280;2022-10-16T13:54:09;5.82;;;3.80;;
71759;SDS011;59919;48.112;16.280;2022-10-16T13:56:42;4.75;;;3.78;;
71759;SDS011;59919;48.112;16.280;2022-10-16T14:02:40;4.47;;;4.03;;
71759;SDS011;59919;48.112;16.280;2022-10-16T14:05:09;5.13;;;3.60;;
71759;SDS011;59919;48.112;16.280;2022-10-16T14:07:41;4.95;;;3.92;;
71759;SDS011;59919;48.112;16.280;2022-10-16T14:10:27;5.15;;;3.78;;
71759;SDS011;59919;48.112;16.280;2022-10-16T14:13:02;4.78;;;4.10;;
71759;SDS011;59919;48.112;16.280;2022-10-16T14:15:37;6.18;;;4.10;;
71759;SDS011;59919;48.112;16.280;2022-10-16T14:18:13;5.40;;;4.10;;
71759;SDS011;59919;48.112;16.280;2022-10-16T14:20:50;5.72;;;4.15;;
71759;SDS011;59919;48.112;16.280;2022-10-16T14:23:29;4.72;;;3.70;;
71759;SDS011;59919;48.112;16.280;2022-10-16T14:28:44;5.15;;;4.13;;
71759;SDS011;59919;48.112;16.280;2022-10-16T14:33:50;4.25;;;3.38;;
71759;SDS011;59919;48.112;16.280;2022-10-16T14:36:23;4.47;;;3.90;;
71759;SDS011;59919;48.112;16.280;2022-10-16T14:39:04;5.20;;;3.90;;
71759;SDS011;59919;48.112;16.280;2022-10-16T14:41:48;7.20;;;4.35;;
71759;SDS011;59919;48.112;16.280;2022-10-16T14:44:24;4.95;;;3.90;;
71759;SDS011;59919;48.112;16.280;2022-10-16T14:47:06;5.72;;;4.15;;
71759;SDS011;59919;48.112;16.280;2022-10-16T14:49:42;4.43;;;3.75;;
71759;SDS011;59919;48.112;16.280;2022-10-16T14:52:14;4.25;;;3.83;;
71759;SDS011;59919;48.112;16.280;2022-10-16T14:54:48;4.97;;;3.97;;
71759;SDS011;59919;48.112;16.280;2022-10-16T14:57:26;4.90;;;4.13;;
71759;SDS011;59919;48.112;16.280;2022-10-16T15:00:02;5.00;;;4.35;;
71759;SDS011;59919;48.112;16.280;2022-10-16T15:02:36;5.30;;;4.50;;
71759;SDS011;59919;48.112;16.280;2022-10-16T15:05:14;6.30;;;4.50;;
71759;SDS011;59919;48.112;16.280;2022-10-16T15:07:50;5.50;;;4.03;;
71759;SDS011;59919;48.112;16.280;2022-10-16T15:10:28;5.43;;;3.55;;
71759;SDS011;59919;48.112;16.280;2022-10-16T15:13:00;5.72;;;4.13;;
71759;SDS011;59919;48.112;16.280;2022-10-16T15:15:35;5.55;;;4.20;;
71759;SDS011;59919;48.112;16.280;2022-10-16T15:18:08;8.07;;;4.50;;
71759;SDS011;59919;48.112;16.280;2022-10-16T15:20:40;4.80;;;4.13;;
71759;SDS011;59919;48.112;16.280;2022-10-16T15:23:16;5.25;;;4.00;;
71759;SDS011;59919;48.112;16.280;2022-10-16T15:28:25;4.85;;;4.25;;
71759;SDS011;59919;48.112;16.280;2022-10-16T15:30:59;6.15;;;4.18;;
71759;SDS011;59919;48.112;16.280;2022-10-16T15:33:30;5.25;;;4.15;;
71759;SDS011;59919;48.112;16.280;2022-10-16T15:36:06;5.10;;;4.10;;
71759;SDS011;59919;48.112;16.280;2022-10-16T15:38:43;3.75;;;3.45;;
71759;SDS011;59919;48.112;16.280;2022-10-16T15:41:15;4.60;;;4.10;;
71759;SDS011;59919;48.112;16.280;2022-10-16T15:43:50;5.35;;;4.13;;
71759;SDS011;59919;48.112;16.280;2022-10-16T15:46:22;4.88;;;4.30;;
71759;SDS011;59919;48.112;16.280;2022-10-16T15:48:58;5.05;;;4.05;;
71759;SDS011;59919;48.112;16.280;2022-10-16T15:51:29;4.75;;;4.07;;
71759;SDS011;59919;48.112;16.280;2022-10-16T15:54:02;4.15;;;3.75;;
71759;SDS011;59919;48.112;16.280;2022-10-16T15:56:33;5.25;;;4.55;;
71759;SDS011;59919;48.112;16.280;2022-10-16T15:59:09;5.22;;;4.43;;
71759;SDS011;59919;48.112;16.280;2022-10-16T16:01:46;5.55;;;3.85;;
71759;SDS011;59919;48.112;16.280;2022-10-16T16:04:17;5.25;;;4.15;;
71759;SDS011;59919;48.112;16.280;2022-10-16T16:06:48;4.95;;;3.90;;
71759;SDS011;59919;48.112;16.280;2022-10-16T16:09:19;6.13;;;4.38;;
71759;SDS011;59919;48.112;16.280;2022-10-16T16:11:50;8.18;;;5.65;;
71759;SDS011;59919;48.112;16.280;2022-10-16T16:14:24;11.90;;;7.20;;
71759;SDS011;59919;48.112;16.280;2022-10-16T16:16:58;13.18;;;7.55;;
71759;SDS011;59919;48.112;16.280;2022-10-16T16:19:35;11.00;;;6.93;;
71759;SDS011;59919;48.112;16.280;2022-10-16T16:22:06;12.18;;;8.48;;
71759;SDS011;59919;48.112;16.280;2022-10-16T16:24:38;16.73;;;9.43;;
71759;SDS011;59919;48.112;16.280;2022-10-16T16:27:09;13.30;;;8.93;;
71759;SDS011;59919;48.112;16.280;2022-10-16T16:29:40;11.77;;;8.15;;
71759;SDS011;59919;48.112;16.280;2022-10-16T16:32:11;14.38;;;8.27;;
71759;SDS011;59919;48.112;16.280;2022-10-16T16:34:44;12.25;;;8.60;;
71759;SDS011;59919;48.112;16.280;2022-10-16T16:37:18;12.32;;;9.10;;
71759;SDS011;59919;48.112;16.280;2022-10-16T16:39:49;15.43;;;8.98;;
71759;SDS011;59919;48.112;16.280;2022-10-16T16:42:20;13.23;;;8.68;;
71759;SDS011;59919;48.112;16.280;2022-10-16T16:44:51;12.60;;;8.50;;
71759;SDS011;59919;48.112;16.280;2022-10-16T16:47:23;9.85;;;8.48;;
71759;SDS011;59919;48.112;16.280;2022-10-16T16:49:54;10.63;;;8.13;;
71759;SDS011;59919;48.112;16.280;2022-10-16T16:52:25;10.35;;;7.72;;
71759;SDS011;59919;48.112;16.280;2022-10-16T16:54:56;10.63;;;7.63;;
71759;SDS011;59919;48.112;16.280;2022-10-16T16:57:32;11.93;;;7.82;;
71759;SDS011;59919;48.112;16.280;2022-10-16T17:00:05;9.63;;;7.70;;
71759;SDS011;59919;48.112;16.280;2022-10-16T17:02:40;12.50;;;8.10;;
71759;SDS011;59919;48.112;16.280;2022-10-16T17:05:16;10.85;;;7.63;;
71759;SDS011;59919;48.112;16.280;2022-10-16T17:07:48;12.57;;;7.97;;
71759;SDS011;59919;48.112;16.280;2022-10-16T17:10:19;11.73;;;7.85;;
71759;SDS011;59919;48.112;16.280;2022-10-16T17:12:50;11.82;;;7.93;;
71759;SDS011;59919;48.112;16.280;2022-10-16T17:15:21;10.02;;;7.55;;
71759;SDS011;59919;48.112;16.280;2022-10-16T17:17:52;9.48;;;7.72;;
71759;SDS011;59919;48.112;16.280;2022-10-16T17:20:23;10.80;;;7.78;;
71759;SDS011;59919;48.112;16.280;2022-10-16T17:22:54;11.13;;;7.85;;
71759;SDS011;59919;48.112;16.280;2022-10-16T17:25:25;10.93;;;8.00;;
71759;SDS011;59919;48.112;16.280;2022-10-16T17:27:56;10.35;;;7.68;;